Time;durP1;ratioP1;P1;durP2;ratioP2;P2;SDS_P1;SDS_P2;PMS_P1;PMS_P2;Temp;Humidity;BMP_temperature;BMP_pressure;BME280_temperature;BME280_humidity;BME280_pressure;Samples;Min_cycle;Max_cycle;Signal;HPM_P1;HPM_P2
2023/04/17 00:02:32;;;;;;;7.37;6.27;;;;;;;;;;5038854;28;20202;-27
2023/04/17 00:05:23;;;;;;;9.90;7.30;;;;;;;;;;5032631;28;20238;-27
2023/04/17 00:08:02;;;;;;;7.83;6.77;;;;;;;;;;5037227;28;20218;-27
2023/04/17 00:10:37;;;;;;;7.80;6.33;;;;;;;;;;5020308;28;20218;-28
2023/04/17 00:16:33;;;;;;;9.17;7.07;;;;;;;;;;5039172;28;20245;-27
2023/04/17 00:19:16;;;;;;;8.87;6.73;;;;;;;;;;5036153;28;20207;-27
2023/04/17 00:21:55;;;;;;;11.47;7.63;;;;;;;;;;5056267;28;20220;-30
2023/04/17 00:24:57;;;;;;;11.23;7.60;;;;;;;;;;5049551;28;20245;-30
2023/04/17 00:27:40;;;;;;;9.97;6.47;;;;;;;;;;5052815;28;20284;-26
2023/04/17 00:32:58;;;;;;;8.63;6.30;;;;;;;;;;5727856;22;20480;-36
2023/04/17 00:40:32;;;;;;;10.53;6.83;;;;;;;;;;5228312;22;20200;-29
2023/04/17 00:43:02;;;;;;;8.97;7.63;;;;;;;;;;5049241;28;20229;-26
2023/04/17 00:45:29;;;;;;;8.70;6.73;;;;;;;;;;5051608;28;20200;-30
2023/04/17 00:48:00;;;;;;;10.40;7.77;;;;;;;;;;5042335;28;20229;-29
2023/04/17 00:50:28;;;;;;;8.20;6.00;;;;;;;;;;5043136;28;20198;-30
2023/04/17 00:52:55;;;;;;;9.23;6.73;;;;;;;;;;5031929;28;20276;-25
2023/04/17 00:55:22;;;;;;;10.00;7.20;;;;;;;;;;5046970;28;20198;-27
2023/04/17 00:57:49;;;;;;;9.43;6.97;;;;;;;;;;5042957;28;20294;-29
2023/04/17 01:00:17;;;;;;;9.27;6.93;;;;;;;;;;5038777;28;20195;-28
2023/04/17 01:02:44;;;;;;;10.07;7.27;;;;;;;;;;5036739;28;20253;-29
2023/04/17 01:05:13;;;;;;;9.57;6.80;;;;;;;;;;5040140;28;20198;-29
2023/04/17 01:07:40;;;;;;;10.70;6.87;;;;;;;;;;5031167;28;20203;-27
2023/04/17 01:10:08;;;;;;;10.77;7.80;;;;;;;;;;5038823;28;20214;-27
2023/04/17 01:12:35;;;;;;;9.87;7.23;;;;;;;;;;5033931;28;20281;-28
2023/04/17 01:15:02;;;;;;;11.80;7.10;;;;;;;;;;5052900;28;20221;-30
2023/04/17 01:17:30;;;;;;;8.10;6.33;;;;;;;;;;5045062;28;20202;-27
2023/04/17 01:19:57;;;;;;;9.23;6.43;;;;;;;;;;5038187;28;20221;-28
2023/04/17 01:22:26;;;;;;;10.23;6.40;;;;;;;;;;5047418;28;20201;-29
2023/04/17 01:24:54;;;;;;;9.17;6.23;;;;;;;;;;5040114;28;20703;-29
2023/04/17 01:27:22;;;;;;;7.23;6.00;;;;;;;;;;5034276;28;20260;-29
2023/04/17 01:29:49;;;;;;;9.63;7.17;;;;;;;;;;5050952;28;20201;-31
2023/04/17 01:32:17;;;;;;;9.70;6.93;;;;;;;;;;5042121;28;20211;-29
2023/04/17 01:34:44;;;;;;;8.30;6.87;;;;;;;;;;5038788;28;20238;-29
2023/04/17 01:37:11;;;;;;;9.67;7.10;;;;;;;;;;5030850;28;20233;-27
2023/04/17 01:39:38;;;;;;;10.00;7.33;;;;;;;;;;5044218;28;20209;-29
2023/04/17 01:42:07;;;;;;;9.00;6.63;;;;;;;;;;5046872;28;20209;-30
2023/04/17 01:44:36;;;;;;;9.50;6.80;;;;;;;;;;5041218;28;20215;-30
2023/04/17 01:47:03;;;;;;;10.03;6.53;;;;;;;;;;5031592;28;20203;-30
2023/04/17 01:49:30;;;;;;;8.47;6.63;;;;;;;;;;5039188;28;20209;-29
2023/04/17 01:51:57;;;;;;;8.57;7.10;;;;;;;;;;5044742;28;20214;-30
2023/04/17 01:54:24;;;;;;;11.57;7.50;;;;;;;;;;5046106;28;20221;-27
2023/04/17 01:56:52;;;;;;;8.83;6.60;;;;;;;;;;5041557;28;20224;-28
2023/04/17 01:59:20;;;;;;;10.90;7.67;;;;;;;;;;5045868;28;20220;-29
2023/04/17 02:01:47;;;;;;;7.50;5.73;;;;;;;;;;5043640;28;20202;-27
2023/04/17 02:04:14;;;;;;;7.37;6.20;;;;;;;;;;5045132;28;20222;-28
2023/04/17 02:06:41;;;;;;;10.33;6.87;;;;;;;;;;5049430;28;20232;-28
2023/04/17 02:09:09;;;;;;;9.10;6.33;;;;;;;;;;5047730;28;20198;-29
2023/04/17 02:11:36;;;;;;;9.90;7.57;;;;;;;;;;5038103;28;20207;-30
2023/04/17 02:14:03;;;;;;;10.27;7.47;;;;;;;;;;5043505;28;20224;-29
2023/04/17 02:16:31;;;;;;;8.43;6.90;;;;;;;;;;5045414;28;20225;-28
2023/04/17 02:18:58;;;;;;;14.07;7.30;;;;;;;;;;5033982;28;20202;-29
2023/04/17 02:21:26;;;;;;;10.57;7.40;;;;;;;;;;5044078;28;20293;-31
2023/04/17 02:23:53;;;;;;;10.70;7.63;;;;;;;;;;5047898;28;20222;-28
2023/04/17 02:26:20;;;;;;;8.57;6.70;;;;;;;;;;5042790;28;20198;-30
2023/04/17 02:28:47;;;;;;;12.57;8.10;;;;;;;;;;5041068;28;20208;-27
2023/04/17 02:31:15;;;;;;;9.93;6.43;;;;;;;;;;5045598;28;20202;-29
2023/04/17 02:33:43;;;;;;;9.70;7.40;;;;;;;;;;5039689;28;20230;-30
2023/04/17 02:36:10;;;;;;;9.27;7.03;;;;;;;;;;5043138;28;20209;-27
2023/04/17 02:38:38;;;;;;;8.60;6.80;;;;;;;;;;5047920;28;20213;-27
2023/04/17 02:41:05;;;;;;;12.10;6.97;;;;;;;;;;5039524;28;20209;-30
2023/04/17 02:43:32;;;;;;;8.87;6.93;;;;;;;;;;5048329;28;20221;-29
2023/04/17 02:46:00;;;;;;;9.17;7.00;;;;;;;;;;5040456;28;20202;-28
2023/04/17 02:48:27;;;;;;;8.67;6.63;;;;;;;;;;5038141;28;20206;-30
2023/04/17 02:50:55;;;;;;;12.13;7.60;;;;;;;;;;5037713;28;20202;-26
2023/04/17 02:53:22;;;;;;;9.20;7.00;;;;;;;;;;5029683;28;20222;-29
2023/04/17 02:55:49;;;;;;;8.80;6.53;;;;;;;;;;5027911;28;20226;-30
2023/04/17 02:58:17;;;;;;;9.40;6.73;;;;;;;;;;5037748;28;20205;-28
2023/04/17 03:00:44;;;;;;;9.70;6.83;;;;;;;;;;5038193;28;20225;-30
2023/04/17 03:03:11;;;;;;;8.93;6.60;;;;;;;;;;5030814;28;20228;-26
2023/04/17 03:05:38;;;;;;;8.80;7.10;;;;;;;;;;5031071;28;20226;-28
2023/04/17 03:08:07;;;;;;;10.30;7.43;;;;;;;;;;5030292;28;20215;-29
2023/04/17 03:10:34;;;;;;;11.20;7.77;;;;;;;;;;5028220;28;20206;-28
2023/04/17 03:13:03;;;;;;;10.97;8.30;;;;;;;;;;5034852;28;20213;-29
2023/04/17 03:15:30;;;;;;;13.13;7.93;;;;;;;;;;5049633;28;20229;-29
2023/04/17 03:17:57;;;;;;;10.10;7.20;;;;;;;;;;5041091;28;20205;-30
2023/04/17 03:20:24;;;;;;;9.40;7.27;;;;;;;;;;5041165;28;20206;-29
2023/04/17 03:22:51;;;;;;;9.83;7.07;;;;;;;;;;5030207;28;20257;-26
2023/04/17 03:25:20;;;;;;;10.27;7.67;;;;;;;;;;5029959;28;20207;-27
2023/04/17 03:27:47;;;;;;;10.33;7.70;;;;;;;;;;5037166;28;20194;-26
2023/04/17 03:30:14;;;;;;;10.30;7.87;;;;;;;;;;5029471;28;20217;-28
2023/04/17 03:32:41;;;;;;;11.77;8.00;;;;;;;;;;5036279;28;20221;-31
2023/04/17 03:35:09;;;;;;;9.83;7.50;;;;;;;;;;5042046;28;20227;-28
2023/04/17 03:37:36;;;;;;;7.80;6.03;;;;;;;;;;5048019;28;20233;-27
2023/04/17 03:40:04;;;;;;;13.17;8.43;;;;;;;;;;5044451;28;20211;-29
2023/04/17 03:42:33;;;;;;;12.13;8.27;;;;;;;;;;5047959;28;20206;-29
2023/04/17 03:45:02;;;;;;;10.90;6.77;;;;;;;;;;5038051;28;20207;-30
2023/04/17 03:47:29;;;;;;;10.20;7.53;;;;;;;;;;5037000;28;20198;-30
2023/04/17 03:49:56;;;;;;;10.83;8.40;;;;;;;;;;5051474;28;20225;-29
2023/04/17 03:52:23;;;;;;;9.27;7.00;;;;;;;;;;5040049;28;20213;-31
2023/04/17 03:54:50;;;;;;;9.60;7.43;;;;;;;;;;5035969;28;20238;-27
2023/04/17 03:57:18;;;;;;;13.90;8.17;;;;;;;;;;5039355;28;20284;-27
2023/04/17 03:59:46;;;;;;;8.70;6.83;;;;;;;;;;5053176;28;21228;-30
2023/04/17 04:02:13;;;;;;;9.10;6.90;;;;;;;;;;5040714;28;20245;-29
2023/04/17 04:04:40;;;;;;;9.90;7.00;;;;;;;;;;5040960;28;20245;-28
2023/04/17 04:07:08;;;;;;;10.00;7.87;;;;;;;;;;5038930;28;20210;-30
2023/04/17 04:09:35;;;;;;;10.63;7.77;;;;;;;;;;5033175;28;20209;-31
2023/04/17 04:12:02;;;;;;;10.30;8.13;;;;;;;;;;5048270;28;20208;-29
2023/04/17 04:14:29;;;;;;;10.33;7.97;;;;;;;;;;5052526;28;20240;-30
2023/04/17 04:16:57;;;;;;;9.63;7.53;;;;;;;;;;5045018;28;20206;-29
2023/04/17 04:19:24;;;;;;;11.93;7.20;;;;;;;;;;5036116;28;20207;-26
2023/04/17 04:21:52;;;;;;;10.37;6.90;;;;;;;;;;5032761;28;20205;-28
2023/04/17 04:24:19;;;;;;;11.90;8.10;;;;;;;;;;5034659;28;20227;-27
2023/04/17 04:26:48;;;;;;;9.90;7.43;;;;;;;;;;5039928;28;20229;-27
2023/04/17 04:29:16;;;;;;;12.13;8.67;;;;;;;;;;5039394;28;20210;-30
2023/04/17 04:31:45;;;;;;;10.40;7.80;;;;;;;;;;5045360;28;20333;-30
2023/04/17 04:34:15;;;;;;;10.60;7.57;;;;;;;;;;5034354;28;20227;-27
2023/04/17 04:36:48;;;;;;;9.73;7.20;;;;;;;;;;5038416;28;20210;-30
2023/04/17 04:39:19;;;;;;;10.90;7.73;;;;;;;;;;5043346;28;20198;-27
2023/04/17 04:41:46;;;;;;;12.00;8.03;;;;;;;;;;5040166;28;20221;-30
2023/04/17 04:44:13;;;;;;;11.40;8.30;;;;;;;;;;5038480;28;20224;-27
2023/04/17 04:46:40;;;;;;;12.10;7.57;;;;;;;;;;5037014;28;20207;-29
2023/04/17 04:49:07;;;;;;;12.93;8.03;;;;;;;;;;5039609;28;20302;-28
2023/04/17 04:51:36;;;;;;;12.27;8.13;;;;;;;;;;5040676;28;20239;-29
2023/04/17 04:54:03;;;;;;;14.23;9.13;;;;;;;;;;5046296;28;20289;-28
2023/04/17 04:56:31;;;;;;;9.90;7.30;;;;;;;;;;5041673;28;20582;-29
2023/04/17 04:58:58;;;;;;;11.20;8.40;;;;;;;;;;5037263;28;20202;-29
2023/04/17 05:01:26;;;;;;;11.37;7.93;;;;;;;;;;5039970;28;20198;-29
2023/04/17 05:03:53;;;;;;;10.33;7.13;;;;;;;;;;5036155;28;20231;-29
2023/04/17 05:06:20;;;;;;;9.77;7.33;;;;;;;;;;5040563;28;20198;-29
2023/04/17 05:08:49;;;;;;;13.53;8.73;;;;;;;;;;5044638;28;20225;-28
2023/04/17 05:11:16;;;;;;;9.67;7.03;;;;;;;;;;5041505;28;20206;-28
2023/04/17 05:13:43;;;;;;;11.97;7.17;;;;;;;;;;5052993;28;20226;-26
2023/04/17 05:16:10;;;;;;;13.20;8.50;;;;;;;;;;5050923;28;20237;-28
2023/04/17 05:18:37;;;;;;;10.97;7.63;;;;;;;;;;5038123;28;20216;-27
2023/04/17 05:21:05;;;;;;;13.30;7.60;;;;;;;;;;5039404;28;20198;-28
2023/04/17 05:23:32;;;;;;;12.83;8.50;;;;;;;;;;5053547;28;20233;-26
2023/04/17 05:26:00;;;;;;;11.77;8.50;;;;;;;;;;5041099;28;20199;-25
2023/04/17 05:28:28;;;;;;;11.67;7.87;;;;;;;;;;5041747;28;20213;-27
2023/04/17 05:30:55;;;;;;;10.50;7.80;;;;;;;;;;5038877;28;20297;-28
2023/04/17 05:33:23;;;;;;;11.33;8.17;;;;;;;;;;5038245;28;20222;-29
2023/04/17 05:35:50;;;;;;;12.57;8.53;;;;;;;;;;5032889;28;20225;-28
2023/04/17 05:38:17;;;;;;;14.07;9.87;;;;;;;;;;5033367;28;20253;-27
2023/04/17 05:40:45;;;;;;;12.70;9.57;;;;;;;;;;5039766;28;20214;-29
2023/04/17 05:43:13;;;;;;;12.00;9.27;;;;;;;;;;5045911;28;20231;-29
2023/04/17 05:45:41;;;;;;;12.30;8.73;;;;;;;;;;5051966;28;20202;-28
2023/04/17 05:48:08;;;;;;;13.23;9.17;;;;;;;;;;5046025;28;20244;-27
2023/04/17 05:50:37;;;;;;;12.27;9.13;;;;;;;;;;5042901;28;20228;-29
2023/04/17 05:53:04;;;;;;;12.53;9.10;;;;;;;;;;5052965;28;20229;-29
2023/04/17 05:55:31;;;;;;;14.77;9.83;;;;;;;;;;5053259;28;20253;-28
2023/04/17 05:58:05;;;;;;;13.43;9.33;;;;;;;;;;5040347;28;20202;-29
2023/04/17 06:00:36;;;;;;;13.70;9.70;;;;;;;;;;5033002;28;20198;-30
2023/04/17 06:03:04;;;;;;;14.93;11.67;;;;;;;;;;5038385;28;20230;-28
2023/04/17 06:05:31;;;;;;;19.20;11.87;;;;;;;;;;5052919;28;20202;-30
2023/04/17 06:07:59;;;;;;;14.37;10.87;;;;;;;;;;5053336;28;20280;-27
2023/04/17 06:10:29;;;;;;;15.47;12.93;;;;;;;;;;5049456;28;20208;-26
2023/04/17 06:12:56;;;;;;;14.97;10.83;;;;;;;;;;5034129;28;20223;-25
2023/04/17 06:15:23;;;;;;;15.40;13.70;;;;;;;;;;5040701;28;20237;-29
2023/04/17 06:17:52;;;;;;;14.50;10.93;;;;;;;;;;5045994;28;20288;-28
2023/04/17 06:20:25;;;;;;;16.60;10.70;;;;;;;;;;5041488;28;20205;-30
2023/04/17 06:22:59;;;;;;;14.07;11.00;;;;;;;;;;5035235;28;20253;-30
2023/04/17 06:25:26;;;;;;;18.83;16.83;;;;;;;;;;5049998;28;20190;-32
2023/04/17 06:27:54;;;;;;;15.57;10.93;;;;;;;;;;5048636;28;20206;-27
2023/04/17 06:30:21;;;;;;;14.03;9.77;;;;;;;;;;5033314;28;20210;-29
2023/04/17 06:32:48;;;;;;;15.93;10.17;;;;;;;;;;5029217;28;20209;-29
2023/04/17 06:35:16;;;;;;;15.93;10.57;;;;;;;;;;5045038;28;20218;-26
2023/04/17 06:37:43;;;;;;;11.93;9.13;;;;;;;;;;5033400;28;20210;-30
2023/04/17 06:40:12;;;;;;;12.30;9.60;;;;;;;;;;5031602;28;20206;-30
2023/04/17 06:42:39;;;;;;;14.30;9.33;;;;;;;;;;5036406;28;20214;-28
2023/04/17 06:45:06;;;;;;;14.17;11.43;;;;;;;;;;5030529;28;20199;-28
2023/04/17 06:47:34;;;;;;;14.40;11.23;;;;;;;;;;5030465;28;20270;-26
2023/04/17 06:50:01;;;;;;;13.00;9.37;;;;;;;;;;5050248;28;20201;-27
2023/04/17 06:52:29;;;;;;;13.50;9.43;;;;;;;;;;5035998;28;20199;-29
2023/04/17 06:54:56;;;;;;;15.33;9.27;;;;;;;;;;5041579;28;20313;-27
2023/04/17 06:57:24;;;;;;;17.53;12.87;;;;;;;;;;5029835;28;20198;-28
2023/04/17 06:59:51;;;;;;;12.03;9.43;;;;;;;;;;5041494;28;20205;-29
2023/04/17 07:02:18;;;;;;;12.37;9.40;;;;;;;;;;5038986;28;20210;-28
2023/04/17 07:04:45;;;;;;;11.20;8.43;;;;;;;;;;5034607;28;20234;-28
2023/04/17 07:07:13;;;;;;;11.63;8.57;;;;;;;;;;5035613;28;20201;-29
2023/04/17 07:09:41;;;;;;;9.47;7.40;;;;;;;;;;5042624;28;20297;-30
2023/04/17 07:12:09;;;;;;;11.73;7.93;;;;;;;;;;5043715;28;20202;-29
2023/04/17 07:14:37;;;;;;;10.53;7.63;;;;;;;;;;5034312;28;20226;-28
2023/04/17 07:17:04;;;;;;;12.60;7.60;;;;;;;;;;5042374;28;20267;-27
2023/04/17 07:19:31;;;;;;;7.73;6.30;;;;;;;;;;5036743;28;20288;-30
2023/04/17 07:21:58;;;;;;;10.70;6.83;;;;;;;;;;5036066;28;20202;-29
2023/04/17 07:24:25;;;;;;;9.63;6.97;;;;;;;;;;5049034;28;20308;-29
2023/04/17 07:26:55;;;;;;;8.67;6.80;;;;;;;;;;5037158;28;20295;-29
2023/04/17 07:29:22;;;;;;;7.80;6.00;;;;;;;;;;5033911;28;20205;-28
2023/04/17 07:31:49;;;;;;;9.23;6.90;;;;;;;;;;5032335;28;20206;-29
2023/04/17 07:34:16;;;;;;;9.47;6.53;;;;;;;;;;5037230;28;20229;-27
2023/04/17 07:36:44;;;;;;;8.60;6.63;;;;;;;;;;5035147;28;20305;-27
2023/04/17 07:39:11;;;;;;;7.90;6.17;;;;;;;;;;5042015;28;20352;-30
2023/04/17 07:41:38;;;;;;;8.60;6.63;;;;;;;;;;5144527;22;20265;-31
2023/04/17 07:44:07;;;;;;;11.20;9.07;;;;;;;;;;5067436;28;20300;-28
2023/04/17 07:46:34;;;;;;;9.00;5.60;;;;;;;;;;5061551;28;20198;-27
2023/04/17 07:49:01;;;;;;;9.33;7.33;;;;;;;;;;5057090;28;20328;-29
2023/04/17 07:51:30;;;;;;;8.13;5.90;;;;;;;;;;5059983;28;20237;-30
2023/04/17 07:53:57;;;;;;;8.73;6.20;;;;;;;;;;5064811;28;20545;-29
2023/04/17 07:56:25;;;;;;;9.77;7.93;;;;;;;;;;5060941;28;20213;-30
2023/04/17 07:58:52;;;;;;;7.83;5.63;;;;;;;;;;5063186;28;20198;-26
2023/04/17 08:01:21;;;;;;;13.77;6.50;;;;;;;;;;5060348;28;20197;-27
2023/04/17 08:03:50;;;;;;;11.17;7.80;;;;;;;;;;5056581;28;20226;-28
2023/04/17 08:06:17;;;;;;;9.20;5.47;;;;;;;;;;5052699;28;20194;-28
2023/04/17 08:08:46;;;;;;;5.70;4.57;;;;;;;;;;5052573;28;20210;-26
2023/04/17 08:11:13;;;;;;;6.30;4.83;;;;;;;;;;5051226;28;20206;-27
2023/04/17 08:13:41;;;;;;;9.37;6.27;;;;;;;;;;5059385;28;20225;-29
2023/04/17 08:16:08;;;;;;;6.47;5.40;;;;;;;;;;5057602;28;20222;-26
2023/04/17 08:18:38;;;;;;;7.13;5.00;;;;;;;;;;5060668;28;20205;-30
2023/04/17 08:21:06;;;;;;;7.60;5.07;;;;;;;;;;5052603;28;20206;-29
2023/04/17 08:23:33;;;;;;;6.47;5.03;;;;;;;;;;5051909;28;20245;-28
2023/04/17 08:26:00;;;;;;;7.70;4.90;;;;;;;;;;5055675;28;20212;-31
2023/04/17 08:28:28;;;;;;;6.37;4.63;;;;;;;;;;5059945;28;20201;-29
2023/04/17 08:30:55;;;;;;;5.40;4.43;;;;;;;;;;5051667;28;20257;-26
2023/04/17 08:33:22;;;;;;;4.93;4.20;;;;;;;;;;5062082;28;20248;-27
2023/04/17 08:35:52;;;;;;;5.07;4.17;;;;;;;;;;5059348;28;20214;-25
2023/04/17 08:38:19;;;;;;;5.77;4.60;;;;;;;;;;5050080;28;20202;-28
2023/04/17 08:40:50;;;;;;;4.67;4.23;;;;;;;;;;5050733;28;20241;-30
2023/04/17 08:43:19;;;;;;;6.37;4.23;;;;;;;;;;5053327;28;20276;-30
2023/04/17 08:45:51;;;;;;;5.47;4.50;;;;;;;;;;5052659;28;20198;-26
2023/04/17 08:48:18;;;;;;;4.40;3.87;;;;;;;;;;5054080;28;20201;-28
2023/04/17 08:50:47;;;;;;;4.13;3.60;;;;;;;;;;5055059;28;20288;-29
2023/04/17 08:53:16;;;;;;;4.73;4.33;;;;;;;;;;5060737;28;20222;-27
2023/04/17 08:55:43;;;;;;;5.67;3.80;;;;;;;;;;5062449;28;20210;-26
2023/04/17 08:58:11;;;;;;;4.70;3.73;;;;;;;;;;5064620;28;20202;-26
2023/04/17 09:00:39;;;;;;;4.30;3.37;;;;;;;;;;5065034;28;20239;-30
2023/04/17 09:03:07;;;;;;;4.43;3.50;;;;;;;;;;5060662;28;20232;-28
2023/04/17 09:05:35;;;;;;;3.90;3.50;;;;;;;;;;5061188;28;20205;-30
2023/04/17 09:08:29;;;;;;;4.33;3.40;;;;;;;;;;5058462;28;20268;-29
2023/04/17 09:10:58;;;;;;;4.97;3.53;;;;;;;;;;5053875;28;20212;-28
2023/04/17 09:13:26;;;;;;;4.73;3.90;;;;;;;;;;5061415;28;20247;-28
2023/04/17 09:16:07;;;;;;;5.27;4.17;;;;;;;;;;5067571;28;20227;-27
2023/04/17 09:18:35;;;;;;;6.40;5.07;;;;;;;;;;5059653;28;20205;-27
2023/04/17 09:21:13;;;;;;;4.13;3.47;;;;;;;;;;5067362;28;20212;-27
2023/04/17 09:23:48;;;;;;;4.53;3.50;;;;;;;;;;5071393;28;20217;-25
2023/04/17 09:26:24;;;;;;;4.17;3.70;;;;;;;;;;5062456;28;20234;-28
2023/04/17 09:29:02;;;;;;;3.63;3.33;;;;;;;;;;5059465;28;20208;-26
2023/04/17 09:31:30;;;;;;;3.33;2.93;;;;;;;;;;5058896;28;20216;-28
2023/04/17 09:33:57;;;;;;;6.23;4.00;;;;;;;;;;5057811;28;20251;-27
2023/04/17 09:36:29;;;;;;;4.03;3.63;;;;;;;;;;5068389;28;20537;-28
2023/04/17 09:38:58;;;;;;;3.87;3.47;;;;;;;;;;5058891;28;20198;-27
2023/04/17 09:41:28;;;;;;;4.03;3.30;;;;;;;;;;5066117;28;20217;-28
2023/04/17 09:43:56;;;;;;;3.10;2.80;;;;;;;;;;5061610;28;20253;-28
2023/04/17 09:46:33;;;;;;;3.30;3.00;;;;;;;;;;5050158;28;20266;-27
2023/04/17 09:49:01;;;;;;;6.37;3.53;;;;;;;;;;5063964;28;20197;-30
2023/04/17 09:51:28;;;;;;;3.63;2.93;;;;;;;;;;5062297;28;20292;-29
2023/04/17 09:53:57;;;;;;;2.80;2.60;;;;;;;;;;5070646;28;20315;-26
2023/04/17 09:56:25;;;;;;;3.57;2.67;;;;;;;;;;5062127;28;20307;-28
2023/04/17 09:58:54;;;;;;;2.67;2.47;;;;;;;;;;5058677;28;20206;-29
2023/04/17 10:01:22;;;;;;;3.17;2.80;;;;;;;;;;5055935;28;20217;-29
2023/04/17 10:03:49;;;;;;;2.80;2.60;;;;;;;;;;5057159;28;20252;-26
2023/04/17 10:06:17;;;;;;;4.77;2.53;;;;;;;;;;5058788;28;20198;-25
2023/04/17 10:08:44;;;;;;;3.07;2.87;;;;;;;;;;5066671;28;20209;-27
2023/04/17 10:11:11;;;;;;;3.20;2.90;;;;;;;;;;5067463;28;20208;-27
2023/04/17 10:13:39;;;;;;;2.80;2.40;;;;;;;;;;5056297;28;20232;-28
2023/04/17 10:16:08;;;;;;;3.40;3.10;;;;;;;;;;5060146;28;20201;-28
2023/04/17 10:18:35;;;;;;;3.47;3.17;;;;;;;;;;5055800;28;20287;-29
2023/04/17 10:21:17;;;;;;;3.83;3.53;;;;;;;;;;5055140;28;20404;-31
2023/04/17 10:23:45;;;;;;;4.00;3.20;;;;;;;;;;5060007;28;20233;-28
2023/04/17 10:26:33;;;;;;;3.20;2.90;;;;;;;;;;5052569;28;20264;-26
2023/04/17 10:29:01;;;;;;;3.80;3.27;;;;;;;;;;5067915;28;20201;-26
2023/04/17 10:31:57;;;;;;;4.00;3.00;;;;;;;;;;5066438;28;20291;-26
2023/04/17 10:34:34;;;;;;;3.23;2.93;;;;;;;;;;5063262;28;20221;-28
2023/04/17 10:37:03;;;;;;;4.07;3.20;;;;;;;;;;5066871;28;20228;-30
2023/04/17 10:39:48;;;;;;;4.50;3.50;;;;;;;;;;5068390;28;20197;-28
2023/04/17 10:42:18;;;;;;;3.10;2.80;;;;;;;;;;5058105;28;20202;-28
2023/04/17 10:44:45;;;;;;;3.30;3.00;;;;;;;;;;5065535;28;20228;-27
2023/04/17 10:47:14;;;;;;;3.40;2.83;;;;;;;;;;5055122;28;20201;-27
2023/04/17 10:49:49;;;;;;;3.33;2.97;;;;;;;;;;5059382;28;20279;-29
2023/04/17 10:52:34;;;;;;;3.40;3.10;;;;;;;;;;5063872;28;20280;-29
2023/04/17 10:55:05;;;;;;;3.17;2.80;;;;;;;;;;5055121;28;20197;-29
2023/04/17 10:57:51;;;;;;;3.03;2.53;;;;;;;;;;5058585;28;20248;-28
2023/04/17 11:00:19;;;;;;;3.13;2.83;;;;;;;;;;5060046;28;20203;-29
2023/04/17 11:02:49;;;;;;;3.50;2.83;;;;;;;;;;5050859;28;20292;-29
2023/04/17 11:05:16;;;;;;;3.53;3.23;;;;;;;;;;5061610;28;20208;-30
2023/04/17 11:07:49;;;;;;;3.90;2.47;;;;;;;;;;5064531;28;20198;-28
2023/04/17 11:10:17;;;;;;;2.97;2.67;;;;;;;;;;5051708;28;20232;-28
2023/04/17 11:12:46;;;;;;;2.90;2.70;;;;;;;;;;5057452;28;20220;-30
2023/04/17 11:15:13;;;;;;;3.30;3.00;;;;;;;;;;5065266;28;20229;-30
2023/04/17 11:17:46;;;;;;;3.87;2.80;;;;;;;;;;5056212;28;20220;-31
2023/04/17 11:20:17;;;;;;;4.80;3.27;;;;;;;;;;5062625;28;20304;-28
2023/04/17 11:22:45;;;;;;;3.10;2.90;;;;;;;;;;5063690;28;20201;-29
2023/04/17 11:25:20;;;;;;;2.73;2.53;;;;;;;;;;5060000;28;20201;-28
2023/04/17 11:27:47;;;;;;;3.13;2.47;;;;;;;;;;5062357;28;20200;-27
2023/04/17 11:30:24;;;;;;;2.33;2.20;;;;;;;;;;5055971;28;20209;-30
2023/04/17 11:32:52;;;;;;;4.10;2.70;;;;;;;;;;5048598;28;20212;-26
2023/04/17 11:35:24;;;;;;;2.93;2.73;;;;;;;;;;5062620;28;20205;-26
2023/04/17 11:38:16;;;;;;;2.87;2.53;;;;;;;;;;5064950;28;20231;-26
2023/04/17 11:40:54;;;;;;;3.07;2.77;;;;;;;;;;5063093;28;20229;-27
2023/04/17 11:43:22;;;;;;;3.83;3.20;;;;;;;;;;5061352;28;20222;-27
2023/04/17 11:45:51;;;;;;;3.87;2.90;;;;;;;;;;5058763;28;20206;-28
2023/04/17 11:48:22;;;;;;;3.17;2.70;;;;;;;;;;5059480;28;20223;-28
2023/04/17 11:50:54;;;;;;;3.53;2.70;;;;;;;;;;5064107;28;20206;-29
2023/04/17 11:53:21;;;;;;;3.90;3.27;;;;;;;;;;5055933;28;20213;-28
2023/04/17 11:55:48;;;;;;;3.40;3.10;;;;;;;;;;5052613;28;20220;-27
2023/04/17 11:58:15;;;;;;;3.80;3.40;;;;;;;;;;5057208;28;20217;-29
2023/04/17 12:00:43;;;;;;;2.07;1.97;;;;;;;;;;5058805;28;20229;-30
2023/04/17 12:03:29;;;;;;;1.80;1.70;;;;;;;;;;5061087;28;20231;-27
2023/04/17 12:06:01;;;;;;;2.13;1.93;;;;;;;;;;5064540;28;20205;-27
2023/04/17 12:08:28;;;;;;;2.07;1.83;;;;;;;;;;5069399;28;20252;-29
2023/04/17 12:10:56;;;;;;;1.80;1.63;;;;;;;;;;5059639;28;20216;-28
2023/04/17 12:13:24;;;;;;;2.63;1.73;;;;;;;;;;5061920;28;20226;-28
2023/04/17 12:15:51;;;;;;;2.20;2.00;;;;;;;;;;5062508;28;20209;-27
2023/04/17 12:18:18;;;;;;;2.90;1.90;;;;;;;;;;5064241;28;20252;-28
2023/04/17 12:20:49;;;;;;;2.53;2.33;;;;;;;;;;5055899;28;20213;-27
2023/04/17 12:23:17;;;;;;;2.50;2.13;;;;;;;;;;5064580;28;20436;-28
2023/04/17 12:25:45;;;;;;;3.40;2.20;;;;;;;;;;5055749;28;20300;-25
2023/04/17 12:28:12;;;;;;;2.63;1.93;;;;;;;;;;5066102;28;20197;-26
2023/04/17 12:35:51;;;;;;;2.90;2.70;;;;;;;;;;5090625;22;20320;-27
2023/04/17 12:38:19;;;;;;;2.73;2.53;;;;;;;;;;5055264;28;20225;-29
2023/04/17 12:40:47;;;;;;;3.23;2.83;;;;;;;;;;5058802;28;20252;-29
2023/04/17 12:43:14;;;;;;;3.97;2.60;;;;;;;;;;5057918;28;20285;-30
2023/04/17 12:45:44;;;;;;;2.67;2.47;;;;;;;;;;5066385;28;20207;-27
2023/04/17 12:48:11;;;;;;;2.57;2.37;;;;;;;;;;5059578;28;20201;-27
2023/04/17 12:50:42;;;;;;;2.63;2.43;;;;;;;;;;5062457;28;20214;-30
2023/04/17 12:53:10;;;;;;;3.00;2.60;;;;;;;;;;5062692;28;20234;-29
2023/04/17 12:55:39;;;;;;;3.37;2.57;;;;;;;;;;5058004;28;20211;-28
2023/04/17 12:58:14;;;;;;;2.70;2.50;;;;;;;;;;5069408;28;20247;-29
2023/04/17 13:00:42;;;;;;;4.63;2.70;;;;;;;;;;5069728;28;20197;-28
2023/04/17 13:03:09;;;;;;;4.33;3.53;;;;;;;;;;5060331;28;20229;-27
2023/04/17 13:05:36;;;;;;;4.40;3.63;;;;;;;;;;5058134;28;20205;-27
2023/04/17 13:08:13;;;;;;;8.13;3.83;;;;;;;;;;5062323;28;20202;-27
2023/04/17 13:10:42;;;;;;;4.00;3.60;;;;;;;;;;5058673;28;20210;-28
2023/04/17 13:13:09;;;;;;;3.40;3.10;;;;;;;;;;5055477;28;20229;-27
2023/04/17 13:15:36;;;;;;;5.77;3.57;;;;;;;;;;5064165;28;20209;-28
2023/04/17 13:18:04;;;;;;;6.00;3.73;;;;;;;;;;5061674;28;20217;-27
2023/04/17 13:20:32;;;;;;;6.70;3.60;;;;;;;;;;5054339;28;20228;-29
2023/04/17 13:22:59;;;;;;;3.40;3.10;;;;;;;;;;5067319;28;20224;-28
2023/04/17 13:25:27;;;;;;;3.93;3.07;;;;;;;;;;5056382;28;20216;-28
2023/04/17 13:27:55;;;;;;;3.67;3.37;;;;;;;;;;5063548;28;20232;-28
2023/04/17 13:30:23;;;;;;;3.70;3.30;;;;;;;;;;5057609;28;20276;-28
2023/04/17 13:32:50;;;;;;;3.67;3.27;;;;;;;;;;5059499;28;20216;-27
2023/04/17 13:35:18;;;;;;;4.77;4.30;;;;;;;;;;5061976;28;20216;-30
2023/04/17 13:37:45;;;;;;;4.73;3.93;;;;;;;;;;5054722;28;20316;-27
2023/04/17 13:40:14;;;;;;;5.57;4.50;;;;;;;;;;5057616;28;20209;-30
2023/04/17 13:42:41;;;;;;;5.00;4.27;;;;;;;;;;5059423;28;20264;-26
2023/04/17 13:45:11;;;;;;;4.57;4.17;;;;;;;;;;5055651;28;20202;-30
2023/04/17 13:47:38;;;;;;;5.37;4.43;;;;;;;;;;5058879;28;20224;-29
2023/04/17 13:50:06;;;;;;;4.67;3.90;;;;;;;;;;5054002;28;20209;-29
2023/04/17 13:52:33;;;;;;;5.07;4.57;;;;;;;;;;5059183;28;20204;-28
2023/04/17 13:55:00;;;;;;;4.67;4.27;;;;;;;;;;5055679;28;20203;-28
2023/04/17 13:57:27;;;;;;;5.10;4.50;;;;;;;;;;5060720;28;20228;-30
2023/04/17 13:59:54;;;;;;;5.10;4.50;;;;;;;;;;5053883;28;20297;-31
2023/04/17 14:02:23;;;;;;;5.07;4.50;;;;;;;;;;5055486;28;20221;-30
2023/04/17 14:04:50;;;;;;;6.93;6.07;;;;;;;;;;5055400;28;20229;-30
2023/04/17 14:07:17;;;;;;;4.53;3.03;;;;;;;;;;5058055;28;20211;-29
2023/04/17 14:09:44;;;;;;;5.10;3.67;;;;;;;;;;5059865;28;20206;-27
2023/04/17 14:12:15;;;;;;;2.90;2.70;;;;;;;;;;5066992;28;20607;-28
2023/04/17 14:14:42;;;;;;;3.40;3.10;;;;;;;;;;5061969;28;20221;-30
2023/04/17 14:17:09;;;;;;;4.37;2.70;;;;;;;;;;5056272;28;20201;-25
2023/04/17 14:19:38;;;;;;;1.93;1.77;;;;;;;;;;5054418;28;20292;-27
2023/04/17 14:22:05;;;;;;;3.63;3.33;;;;;;;;;;5056368;28;20206;-27
2023/04/17 14:24:32;;;;;;;3.10;2.80;;;;;;;;;;5057555;28;20244;-29
2023/04/17 14:26:59;;;;;;;3.33;2.60;;;;;;;;;;5054304;28;20202;-26
2023/04/17 14:29:27;;;;;;;3.87;3.50;;;;;;;;;;5054581;28;20247;-29
2023/04/17 14:31:54;;;;;;;3.77;3.43;;;;;;;;;;5058948;28;20292;-25
2023/04/17 14:34:21;;;;;;;3.77;3.43;;;;;;;;;;5057841;28;20253;-29
2023/04/17 14:36:50;;;;;;;4.30;3.83;;;;;;;;;;5058137;28;20197;-28
2023/04/17 14:39:18;;;;;;;4.10;3.60;;;;;;;;;;5070435;28;20228;-28
2023/04/17 14:41:45;;;;;;;3.93;3.43;;;;;;;;;;5056983;28;20214;-25
2023/04/17 14:44:13;;;;;;;3.77;3.37;;;;;;;;;;5057590;28;20240;-27
2023/04/17 14:46:40;;;;;;;4.83;3.60;;;;;;;;;;5061777;28;20205;-27
2023/04/17 14:49:07;;;;;;;4.70;3.90;;;;;;;;;;5063537;28;20201;-28
2023/04/17 14:51:35;;;;;;;7.10;4.20;;;;;;;;;;5061051;28;20300;-30
2023/04/17 14:54:03;;;;;;;4.97;4.30;;;;;;;;;;5067466;28;20217;-27
2023/04/17 14:56:31;;;;;;;6.43;3.93;;;;;;;;;;5063682;28;20210;-29
2023/04/17 14:58:58;;;;;;;5.43;4.13;;;;;;;;;;5059915;28;20227;-28
2023/04/17 15:01:25;;;;;;;4.20;3.57;;;;;;;;;;5059814;28;20201;-25
2023/04/17 15:03:53;;;;;;;3.40;3.03;;;;;;;;;;5055890;28;20236;-28
2023/04/17 15:06:20;;;;;;;4.43;3.73;;;;;;;;;;5051571;28;20471;-30